Time;durP1;ratioP1;P1;durP2;ratioP2;P2;SDS_P1;SDS_P2;PMS_P1;PMS_P2;Temp;Humidity;BMP_temperature;BMP_pressure;BME280_temperature;BME280_humidity;BME280_pressure;Samples;Min_cycle;Max_cycle;Signal;HPM_P1;HPM_P2
2022/08/31 00:04:01;;;;;;;6.20;3.60;;;;;;;18.59;100.00;96732.44;5060298;28;20028;-65
2022/08/31 00:06:31;;;;;;;5.85;3.63;;;;;;;18.61;100.00;96732.78;5071439;28;20036;-66
2022/08/31 00:08:57;;;;;;;5.82;4.03;;;;;;;18.47;100.00;96722.69;5071604;28;20029;-65
2022/08/31 00:11:30;;;;;;;6.90;4.30;;;;;;;18.19;100.00;96714.78;5071147;28;20032;-67
2022/08/31 00:14:02;;;;;;;5.50;4.40;;;;;;;18.00;100.00;96718.97;5071116;28;20039;-66
2022/08/31 00:16:29;;;;;;;8.02;4.28;;;;;;;17.95;100.00;96714.66;5067333;28;20035;-65
2022/08/31 00:18:55;;;;;;;6.35;4.28;;;;;;;17.93;100.00;96717.88;5064821;28;20037;-65
2022/08/31 00:21:25;;;;;;;5.60;4.38;;;;;;;17.86;100.00;96708.84;5070290;28;20036;-65
2022/08/31 00:23:50;;;;;;;7.95;4.50;;;;;;;17.89;100.00;96708.03;5072217;28;20033;-65
2022/08/31 00:26:16;;;;;;;6.38;4.78;;;;;;;17.85;100.00;96708.06;5064995;28;20405;-66
2022/08/31 00:28:42;;;;;;;8.32;4.53;;;;;;;17.98;100.00;96708.31;5070638;28;20036;-66
2022/08/31 00:31:08;;;;;;;6.75;4.40;;;;;;;18.06;100.00;96698.72;5069780;28;20035;-65
2022/08/31 00:33:35;;;;;;;4.85;3.53;;;;;;;18.12;100.00;96705.34;5071161;28;20064;-66
2022/08/31 00:36:04;;;;;;;8.15;4.68;;;;;;;18.15;100.00;96712.84;5071011;28;20033;-66
2022/08/31 00:38:29;;;;;;;5.57;3.90;;;;;;;18.20;100.00;96706.03;5069084;28;20034;-66
2022/08/31 00:40:55;;;;;;;5.97;4.15;;;;;;;18.41;100.00;96713.28;5067782;28;20282;-67
2022/08/31 00:43:45;;;;;;;7.70;3.70;;;;;;;18.45;100.00;96710.44;5070742;28;20056;-67
2022/08/31 00:46:11;;;;;;;;;;;;;;;18.45;100.00;96716.78;5064614;28;20033;-67
2022/08/31 00:48:43;;;;;;;7.63;3.72;;;;;;;18.38;100.00;96705.78;5071084;28;19908;-66
2022/08/31 00:51:09;;;;;;;7.63;3.85;;;;;;;18.32;100.00;96713.78;5071434;28;20035;-66
2022/08/31 00:53:35;;;;;;;7.78;3.88;;;;;;;18.19;100.00;96710.03;5067978;28;20028;-68
2022/08/31 00:56:01;;;;;;;6.85;4.38;;;;;;;17.99;100.00;96700.78;5073033;28;20028;-66
2022/08/31 00:58:26;;;;;;;7.60;4.13;;;;;;;17.95;100.00;96695.28;5070536;28;20075;-67
2022/08/31 01:00:52;;;;;;;5.75;3.78;;;;;;;18.04;100.00;96700.31;5070474;28;20035;-66
2022/08/31 01:03:18;;;;;;;6.45;4.13;;;;;;;18.18;100.00;96707.66;5070410;28;20064;-67
2022/08/31 01:05:44;;;;;;;6.25;4.28;;;;;;;18.14;100.00;96694.63;5070036;28;20044;-66
2022/08/31 01:08:10;;;;;;;6.63;4.20;;;;;;;17.97;100.00;96695.66;5069256;28;20090;-66
2022/08/31 01:10:38;;;;;;;7.47;3.83;;;;;;;17.88;100.00;96689.81;5073739;28;20081;-66
2022/08/31 01:13:07;;;;;;;6.43;3.88;;;;;;;17.86;100.00;96695.00;5073812;28;20036;-66
2022/08/31 01:15:34;;;;;;;5.53;4.30;;;;;;;17.84;100.00;96694.59;5068707;28;20031;-66
2022/08/31 01:18:03;;;;;;;6.68;4.75;;;;;;;17.75;100.00;96693.13;5073793;28;20089;-65
2022/08/31 01:20:45;;;;;;;5.93;4.40;;;;;;;17.77;100.00;96695.47;5073538;28;20096;-66
2022/08/31 01:23:46;;;;;;;7.80;4.57;;;;;;;17.75;100.00;96692.34;5073072;28;20114;-66
2022/08/31 01:26:17;;;;;;;6.05;4.38;;;;;;;17.72;100.00;96691.19;5050862;28;20086;-66
2022/08/31 01:28:43;;;;;;;5.25;4.10;;;;;;;17.62;100.00;96697.63;5065754;28;20688;-67
2022/08/31 01:31:13;;;;;;;6.00;4.50;;;;;;;17.51;100.00;96703.28;5072542;28;20032;-67
2022/08/31 01:33:40;;;;;;;6.68;4.78;;;;;;;17.52;100.00;96704.06;5073521;28;20028;-67
2022/08/31 01:36:07;;;;;;;8.25;4.32;;;;;;;17.58;100.00;96707.97;5063927;28;20032;-66
2022/08/31 01:38:33;;;;;;;5.65;4.40;;;;;;;17.83;100.00;96704.91;5073440;28;20550;-66
2022/08/31 01:41:01;;;;;;;6.50;3.90;;;;;;;18.00;100.00;96705.13;5073356;28;20028;-67
2022/08/31 01:43:28;;;;;;;5.85;4.40;;;;;;;17.97;100.00;96701.22;5088827;28;20036;-67
2022/08/31 01:45:54;;;;;;;5.60;4.22;;;;;;;17.79;100.00;96706.94;5073022;28;20033;-67
2022/08/31 01:48:21;;;;;;;6.95;3.97;;;;;;;17.83;100.00;96699.38;5070458;28;20384;-67
2022/08/31 01:50:46;;;;;;;5.70;4.00;;;;;;;17.92;100.00;96696.91;5069526;28;20040;-67
2022/08/31 01:53:12;;;;;;;5.68;3.90;;;;;;;18.08;100.00;96698.31;5073807;28;20028;-67
2022/08/31 01:55:38;;;;;;;5.55;3.85;;;;;;;18.09;100.00;96700.63;5073222;28;20070;-67
2022/08/31 01:58:04;;;;;;;6.30;3.80;;;;;;;18.07;100.00;96707.81;5072937;28;20037;-68
2022/08/31 02:00:30;;;;;;;7.57;4.68;;;;;;;17.98;100.00;96702.00;5072956;28;20028;-67
2022/08/31 02:02:58;;;;;;;6.28;4.68;;;;;;;17.89;100.00;96710.81;5064452;28;20031;-67
2022/08/31 02:05:24;;;;;;;8.70;5.00;;;;;;;17.77;100.00;96709.31;5072471;28;20056;-67
2022/08/31 02:07:49;;;;;;;7.20;4.05;;;;;;;17.87;100.00;96705.66;5072771;28;20060;-67
2022/08/31 02:10:15;;;;;;;6.38;4.32;;;;;;;17.93;100.00;96706.00;5072749;28;20392;-66
2022/08/31 02:12:40;;;;;;;6.40;4.10;;;;;;;17.95;100.00;96706.34;5072455;28;20081;-68
2022/08/31 02:15:06;;;;;;;7.80;4.30;;;;;;;17.90;100.00;96702.09;5072526;28;20032;-67
2022/08/31 02:17:32;;;;;;;5.63;3.88;;;;;;;17.87;100.00;96710.44;5063627;28;20424;-66
2022/08/31 02:19:57;;;;;;;5.80;3.80;;;;;;;18.02;100.00;96708.25;5078868;28;20032;-66
2022/08/31 02:22:23;;;;;;;7.28;4.40;;;;;;;18.18;100.00;96711.22;5072495;28;20060;-66
2022/08/31 02:24:48;;;;;;;6.35;4.05;;;;;;;18.20;100.00;96713.56;5070332;28;20086;-66
2022/08/31 02:27:13;;;;;;;7.22;4.22;;;;;;;18.18;100.00;96710.44;5072106;28;20040;-65
2022/08/31 02:29:39;;;;;;;7.03;4.18;;;;;;;18.15;100.00;96707.28;5072209;28;20062;-66
2022/08/31 02:32:04;;;;;;;6.22;4.00;;;;;;;17.93;100.00;96709.56;5064225;28;20108;-66
2022/08/31 02:34:30;;;;;;;7.22;4.60;;;;;;;17.67;100.00;96713.78;5072012;28;20082;-66
2022/08/31 02:36:55;;;;;;;8.95;4.38;;;;;;;17.58;100.00;96713.50;5071081;28;20138;-66
2022/08/31 02:39:21;;;;;;;7.32;4.57;;;;;;;17.59;100.00;96712.28;5060998;28;20032;-66
2022/08/31 02:41:46;;;;;;;6.32;4.55;;;;;;;17.53;100.00;96720.28;5067673;28;20043;-66
2022/08/31 02:44:12;;;;;;;7.35;4.32;;;;;;;17.61;100.00;96715.47;5072061;28;20039;-66
2022/08/31 02:46:37;;;;;;;9.52;5.15;;;;;;;17.67;100.00;96721.31;5071860;28;20413;-66
2022/08/31 02:49:03;;;;;;;7.00;4.93;;;;;;;17.64;100.00;96719.38;5071957;28;20504;-67
2022/08/31 02:51:28;;;;;;;7.97;4.80;;;;;;;17.58;100.00;96716.28;5071985;28;20072;-67
2022/08/31 02:53:54;;;;;;;8.25;5.45;;;;;;;17.45;100.00;96721.56;5078753;28;20032;-66
2022/08/31 02:56:19;;;;;;;9.90;5.30;;;;;;;17.50;100.00;96720.31;5071665;28;20485;-68
2022/08/31 02:58:45;;;;;;;7.25;4.80;;;;;;;17.56;100.00;96724.22;5072929;28;20032;-67
2022/08/31 03:01:10;;;;;;;9.15;5.20;;;;;;;17.65;100.00;96729.25;5084624;28;20029;-67
2022/08/31 03:03:37;;;;;;;6.18;4.65;;;;;;;17.69;100.00;96718.94;5072949;28;20063;-68
2022/08/31 03:06:03;;;;;;;6.15;4.60;;;;;;;17.71;100.00;96722.84;5070698;28;20439;-67
2022/08/31 03:08:29;;;;;;;8.93;4.70;;;;;;;17.62;100.00;96716.25;5065201;28;20115;-69
2022/08/31 03:10:55;;;;;;;7.07;4.50;;;;;;;17.74;100.00;96715.72;5076921;28;20111;-66
2022/08/31 03:13:20;;;;;;;7.88;4.88;;;;;;;17.80;100.00;96727.88;5083795;28;20036;-67
2022/08/31 03:15:45;;;;;;;7.57;4.95;;;;;;;18.00;100.00;96727.28;5082058;28;20393;-66
2022/08/31 03:18:11;;;;;;;6.75;4.45;;;;;;;18.11;100.00;96725.16;5077902;28;20089;-66
2022/08/31 03:20:37;;;;;;;7.00;4.70;;;;;;;18.13;100.00;96718.03;5065594;28;20016;-66
2022/08/31 03:23:02;;;;;;;8.55;4.70;;;;;;;18.15;100.00;96718.38;5069327;28;20040;-67
2022/08/31 03:25:28;;;;;;;7.50;4.40;;;;;;;18.24;100.00;96717.06;5071053;28;20460;-67
2022/08/31 03:27:53;;;;;;;6.45;4.55;;;;;;;18.27;100.00;96727.34;5071219;28;20093;-67
2022/08/31 03:30:21;;;;;;;8.60;4.50;;;;;;;18.27;100.00;96714.25;5071231;28;20092;-68
2022/08/31 03:32:47;;;;;;;5.90;4.40;;;;;;;18.37;100.00;96722.84;5071208;28;20477;-67
2022/08/31 03:35:13;;;;;;;9.15;5.05;;;;;;;18.37;100.00;96715.31;5064729;28;20107;-67
2022/08/31 03:37:39;;;;;;;7.40;4.68;;;;;;;18.34;100.00;96710.59;5070892;28;20384;-67
2022/08/31 03:40:07;;;;;;;7.70;5.00;;;;;;;18.30;100.00;96710.66;5071172;28;20024;-67
2022/08/31 03:42:32;;;;;;;9.20;4.75;;;;;;;18.27;100.00;96713.47;5071161;28;20040;-67
2022/08/31 03:44:58;;;;;;;10.30;5.82;;;;;;;18.30;100.00;96723.72;5071095;28;20078;-66
2022/08/31 03:47:23;;;;;;;7.55;5.07;;;;;;;18.27;100.00;96724.56;5070754;28;20035;-66
2022/08/31 03:49:49;;;;;;;8.80;5.28;;;;;;;18.31;100.00;96730.84;5066304;28;20024;-67
2022/08/31 03:52:14;;;;;;;13.55;5.75;;;;;;;18.30;100.00;96732.84;5070876;28;20036;-68
2022/08/31 03:54:40;;;;;;;8.77;5.80;;;;;;;18.33;100.00;96736.78;5070899;28;20032;-67
2022/08/31 03:57:05;;;;;;;10.25;5.75;;;;;;;18.33;100.00;96734.00;5068618;28;20060;-67
2022/08/31 03:59:31;;;;;;;8.98;5.50;;;;;;;18.11;100.00;96736.25;5070850;28;20027;-67
2022/08/31 04:01:56;;;;;;;9.43;5.65;;;;;;;17.96;100.00;96738.41;5070903;28;20032;-66
2022/08/31 04:04:22;;;;;;;9.25;6.18;;;;;;;18.04;100.00;96734.38;5067803;28;20078;-66
2022/08/31 04:06:47;;;;;;;8.90;5.80;;;;;;;18.02;100.00;96731.22;5070584;28;20039;-66
2022/08/31 04:09:13;;;;;;;8.98;5.75;;;;;;;17.98;100.00;96744.34;5070921;28;20037;-66
2022/08/31 04:11:40;;;;;;;8.35;5.28;;;;;;;17.94;100.00;96741.59;5070962;28;20490;-66
2022/08/31 04:14:07;;;;;;;7.78;5.30;;;;;;;17.66;100.00;96741.91;5070899;28;20029;-66
2022/08/31 04:16:34;;;;;;;9.85;5.25;;;;;;;17.80;100.00;96741.75;5068326;28;20032;-67
2022/08/31 04:19:00;;;;;;;10.73;5.90;;;;;;;17.75;100.00;96739.41;5070552;28;20051;-66
2022/08/31 04:21:29;;;;;;;8.25;5.30;;;;;;;17.76;100.00;96741.00;5070483;28;20537;-66
2022/08/31 04:23:56;;;;;;;6.65;5.13;;;;;;;17.72;100.00;96743.81;5070303;28;20444;-66
2022/08/31 04:26:25;;;;;;;7.88;5.72;;;;;;;17.55;100.00;96742.00;5070466;28;20033;-67
2022/08/31 04:28:51;;;;;;;15.57;5.05;;;;;;;17.56;100.00;96741.59;5070565;28;20025;-68
2022/08/31 04:31:19;;;;;;;9.45;5.97;;;;;;;17.55;100.00;96742.78;5067773;28;20069;-67
2022/08/31 04:33:45;;;;;;;7.93;5.35;;;;;;;17.58;100.00;96739.22;5070513;28;20028;-67
2022/08/31 04:36:14;;;;;;;6.10;4.82;;;;;;;17.55;100.00;96747.56;5070385;28;20517;-66
2022/08/31 04:38:42;;;;;;;9.57;6.00;;;;;;;17.61;100.00;96747.88;5061577;28;20097;-66
2022/08/31 04:41:11;;;;;;;9.33;6.27;;;;;;;17.63;100.00;96751.03;5070485;28;20020;-66
2022/08/31 04:43:38;;;;;;;8.60;5.32;;;;;;;17.64;100.00;96750.63;5073788;28;20032;-67
2022/08/31 04:46:06;;;;;;;8.57;5.90;;;;;;;17.58;100.00;96758.59;5065737;28;20036;-66
2022/08/31 04:48:32;;;;;;;8.43;6.05;;;;;;;17.49;100.00;96754.75;5074243;28;20024;-66
2022/08/31 04:51:03;;;;;;;13.43;5.95;;;;;;;17.51;100.00;96758.66;5074168;28;20025;-66
2022/08/31 04:53:29;;;;;;;10.75;5.90;;;;;;;17.43;100.00;96770.22;5074290;28;20085;-66
2022/08/31 04:55:54;;;;;;;9.73;7.05;;;;;;;17.27;100.00;96771.56;5073909;28;20052;-66
2022/08/31 04:58:22;;;;;;;10.40;7.00;;;;;;;17.28;100.00;96773.13;5074209;28;20029;-66
2022/08/31 05:00:51;;;;;;;10.98;6.25;;;;;;;17.13;100.00;96768.91;5072480;28;20382;-66
2022/08/31 05:03:17;;;;;;;11.07;6.95;;;;;;;17.20;100.00;96780.72;5066382;28;20389;-65
2022/08/31 05:05:45;;;;;;;10.43;6.10;;;;;;;17.20;100.00;96779.94;5074345;28;20044;-65
2022/08/31 05:08:11;;;;;;;10.88;7.13;;;;;;;17.07;100.00;96800.97;5078782;28;20055;-66
2022/08/31 05:10:39;;;;;;;10.88;6.22;;;;;;;17.11;100.00;96804.53;5076097;28;20517;-66
2022/08/31 05:13:05;;;;;;;13.73;7.22;;;;;;;17.14;100.00;96807.25;5073650;28;20035;-66
2022/08/31 05:15:31;;;;;;;10.02;6.40;;;;;;;17.04;100.00;96808.13;5067373;28;20032;-66
2022/08/31 05:17:56;;;;;;;11.55;6.35;;;;;;;17.12;100.00;96812.38;5070558;28;20032;-66
2022/08/31 05:20:22;;;;;;;12.32;7.10;;;;;;;17.13;100.00;96824.25;5075433;28;20020;-68
2022/08/31 05:22:47;;;;;;;8.55;6.70;;;;;;;17.08;100.00;96831.00;5091306;28;20036;-67
2022/08/31 05:25:12;;;;;;;11.23;6.25;;;;;;;17.17;100.00;96830.56;5073775;28;20046;-67
2022/08/31 05:27:40;;;;;;;9.20;6.57;;;;;;;17.26;100.00;96833.63;5073025;28;20697;-67
2022/08/31 05:30:05;;;;;;;11.15;6.72;;;;;;;17.22;100.00;96834.88;5068212;28;20036;-67
2022/08/31 05:32:31;;;;;;;10.15;6.93;;;;;;;17.05;100.00;96833.81;5069096;28;20506;-67
2022/08/31 05:34:56;;;;;;;9.18;6.47;;;;;;;16.98;100.00;96826.34;5072939;28;20028;-67
2022/08/31 05:37:22;;;;;;;13.18;7.72;;;;;;;16.78;100.00;96828.81;5072881;28;20035;-66
2022/08/31 05:39:47;;;;;;;12.27;8.18;;;;;;;16.67;100.00;96822.56;5065051;28;20052;-66
2022/08/31 05:42:14;;;;;;;12.52;7.88;;;;;;;16.81;100.00;96823.25;5073067;28;20055;-66
2022/08/31 05:44:41;;;;;;;11.48;7.20;;;;;;;16.96;100.00;96821.22;5071579;28;20032;-66
2022/08/31 05:47:07;;;;;;;10.88;6.88;;;;;;;17.02;100.00;96821.56;5063330;28;20035;-66
2022/08/31 05:49:33;;;;;;;10.57;6.88;;;;;;;17.06;100.00;96816.78;5070264;28;20028;-67
2022/08/31 05:52:00;;;;;;;10.07;7.00;;;;;;;17.16;100.00;96818.69;5072897;28;20036;-67
2022/08/31 05:54:26;;;;;;;12.70;7.28;;;;;;;17.05;100.00;96809.69;5073200;28;20439;-67
2022/08/31 05:56:52;;;;;;;10.00;7.47;;;;;;;16.98;100.00;96807.00;5072693;28;20036;-67
2022/08/31 05:59:17;;;;;;;12.55;7.22;;;;;;;16.97;100.00;96805.41;5073014;28;20033;-67
2022/08/31 06:01:43;;;;;;;10.02;6.40;;;;;;;16.94;100.00;96807.00;5071918;28;20162;-67
2022/08/31 06:04:10;;;;;;;11.05;7.50;;;;;;;16.84;100.00;96805.09;5071407;28;20032;-67
2022/08/31 06:06:36;;;;;;;10.10;6.75;;;;;;;16.92;100.00;96801.06;5070247;28;20440;-67
2022/08/31 06:09:02;;;;;;;11.73;6.82;;;;;;;16.94;100.00;96800.66;5070800;28;20508;-65
2022/08/31 06:11:29;;;;;;;12.23;6.93;;;;;;;16.97;100.00;96805.41;5073140;28;20033;-67
2022/08/31 06:13:58;;;;;;;13.45;7.68;;;;;;;17.00;100.00;96790.75;5069388;28;20085;-67
2022/08/31 06:16:24;;;;;;;11.57;7.60;;;;;;;16.97;100.00;96800.66;5072155;28;20033;-66
2022/08/31 06:18:50;;;;;;;12.63;8.25;;;;;;;16.97;100.00;96800.66;5071847;28;20363;-64
2022/08/31 06:21:19;;;;;;;11.52;7.85;;;;;;;16.94;100.00;96806.22;5072396;28;20025;-64
2022/08/31 06:23:46;;;;;;;13.00;7.57;;;;;;;16.95;100.00;96805.81;5072566;28;20033;-64
2022/08/31 06:26:14;;;;;;;11.23;7.50;;;;;;;16.93;100.00;96813.72;5072208;28;20103;-65
2022/08/31 06:28:45;;;;;;;12.32;7.93;;;;;;;16.92;100.00;96801.06;5069680;28;20447;-63
2022/08/31 06:31:22;;;;;;;13.27;8.23;;;;;;;16.89;100.00;96806.63;5072215;28;20099;-67
2022/08/31 06:33:48;;;;;;;10.93;8.07;;;;;;;16.90;100.00;96808.22;5072475;28;20108;-67
2022/08/31 06:36:16;;;;;;;13.65;8.18;;;;;;;16.93;100.00;96812.94;5071229;28;20107;-67
2022/08/31 06:38:42;;;;;;;10.25;8.30;;;;;;;17.05;100.00;96819.97;5052536;28;20041;-65
2022/08/31 06:41:19;;;;;;;11.80;7.68;;;;;;;17.12;100.00;96817.91;5049334;28;20036;-65
2022/08/31 06:43:46;;;;;;;10.55;7.93;;;;;;;17.17;100.00;96822.25;5058232;28;20041;-66
2022/08/31 06:46:12;;;;;;;12.65;8.30;;;;;;;17.23;100.00;96825.38;5060217;28;20833;-67
2022/08/31 06:48:39;;;;;;;11.07;7.82;;;;;;;17.29;100.00;96824.53;5061079;28;20068;-67
2022/08/31 06:51:06;;;;;;;16.67;8.60;;;;;;;17.36;100.00;96820.91;5057786;28;20071;-67
2022/08/31 06:53:35;;;;;;;13.02;7.60;;;;;;;17.45;100.00;96821.22;5062750;28;20098;-67
2022/08/31 06:56:18;;;;;;;8.40;6.63;;;;;;;17.70;100.00;96812.69;5052838;28;20045;-66
2022/08/31 06:58:44;;;;;;;13.75;8.18;;;;;;;17.87;100.00;96819.25;5043270;28;20049;-66
2022/08/31 07:01:40;;;;;;;10.48;6.88;;;;;;;17.91;100.00;96810.91;5036592;28;20129;-65
2022/08/31 07:04:08;;;;;;;11.65;8.30;;;;;;;18.10;100.00;96826.94;5041919;28;20052;-65
2022/08/31 07:06:37;;;;;;;10.52;7.43;;;;;;;18.15;100.00;96823.72;5060295;28;20080;-65
2022/08/31 07:09:05;;;;;;;10.27;7.33;;;;;;;17.44;100.00;96822.41;5060932;28;20508;-67
2022/08/31 07:11:52;;;;;;;9.45;6.95;;;;;;;17.46;100.00;96828.31;5043527;28;20280;-66
2022/08/31 07:14:21;;;;;;;7.65;5.30;;;;;;;17.30;100.00;96837.16;5016828;28;20034;-66
2022/08/31 07:16:48;;;;;;;12.82;9.65;;;;;;;17.28;100.00;96839.56;5035236;28;20040;-64
2022/08/31 07:19:14;;;;;;;11.13;8.68;;;;;;;17.37;100.00;96837.09;5017952;28;20049;-66
2022/08/31 07:21:42;;;;;;;9.57;7.63;;;;;;;17.55;100.00;96845.25;5022785;28;20045;-66
2022/08/31 07:24:09;;;;;;;9.80;6.57;;;;;;;17.38;100.00;96843.44;5019715;28;20053;-65
2022/08/31 07:26:43;;;;;;;8.55;6.00;;;;;;;17.65;100.00;96843.59;5041926;28;20056;-65
2022/08/31 07:29:13;;;;;;;9.10;5.28;;;;;;;17.65;100.00;96846.38;5035148;28;20052;-67
2022/08/31 07:31:44;;;;;;;;;;;;;;;17.30;100.00;96847.44;5043017;28;20091;-67
2022/08/31 07:34:12;;;;;;;9.82;5.53;;;;;;;17.64;100.00;96853.09;5037692;28;20060;-66
2022/08/31 07:42:08;;;;;;;7.53;5.00;;;;;;;17.77;100.00;96853.38;5042300;28;20072;-67
2022/08/31 07:42:08;;;;;;;6.40;4.85;;;;;;;17.52;100.00;96861.91;5037781;28;20045;-66
2022/08/31 07:44:33;;;;;;;6.03;4.75;;;;;;;17.67;100.00;96860.59;5042066;28;20131;-67
2022/08/31 07:46:59;;;;;;;8.45;5.13;;;;;;;17.23;100.00;96864.13;5039297;28;20051;-66
2022/08/31 07:49:25;;;;;;;6.22;4.72;;;;;;;17.10;100.00;96872.88;5037132;28;20409;-66
2022/08/31 07:51:51;;;;;;;7.85;5.57;;;;;;;16.90;100.00;96871.84;5041440;28;20044;-66
2022/08/31 07:54:20;;;;;;;8.82;5.32;;;;;;;16.85;100.00;96872.25;5036465;28;20424;-66
2022/08/31 07:56:49;;;;;;;9.30;5.38;;;;;;;16.69;100.00;96864.41;5041833;28;20114;-66
2022/08/31 07:59:17;;;;;;;7.35;5.60;;;;;;;16.75;100.00;96871.13;5037122;28;20041;-66
2022/08/31 08:01:43;;;;;;;8.70;5.80;;;;;;;16.33;100.00;96873.66;5039158;28;20376;-66
2022/08/31 08:04:12;;;;;;;9.07;6.72;;;;;;;16.21;100.00;96874.88;5028273;28;20045;-66
2022/08/31 08:06:37;;;;;;;8.35;6.97;;;;;;;15.97;100.00;96875.72;5040748;28;20124;-66
2022/08/31 08:09:06;;;;;;;9.15;7.10;;;;;;;15.92;100.00;96868.66;5041911;28;20457;-67
2022/08/31 08:11:37;;;;;;;14.35;9.93;;;;;;;16.08;100.00;96878.47;5038173;28;20057;-67
2022/08/31 08:14:05;;;;;;;15.82;11.23;;;;;;;16.09;100.00;96875.31;5039388;28;20394;-67
2022/08/31 08:16:31;;;;;;;11.68;7.88;;;;;;;15.92;100.00;96876.13;5041715;28;20045;-67
2022/08/31 08:18:57;;;;;;;10.25;7.40;;;;;;;15.91;100.00;96878.09;5044656;28;20045;-68
2022/08/31 08:21:22;;;;;;;13.93;11.23;;;;;;;15.89;100.00;96883.25;5041181;28;20063;-66
2022/08/31 08:23:47;;;;;;;27.80;23.30;;;;;;;16.00;100.00;96895.06;5043807;28;20103;-68
2022/08/31 08:26:13;;;;;;;15.55;11.55;;;;;;;15.97;100.00;96889.53;5043969;28;20486;-68
2022/08/31 08:28:38;;;;;;;59.33;52.38;;;;;;;15.90;100.00;96884.84;5045336;28;20518;-67
2022/08/31 08:31:05;;;;;;;22.10;19.88;;;;;;;15.86;100.00;96893.13;5042289;28;20045;-68
2022/08/31 08:33:33;;;;;;;41.72;37.53;;;;;;;15.89;100.00;96894.28;5045674;28;20036;-67
2022/08/31 08:36:01;;;;;;;14.57;10.32;;;;;;;15.88;100.00;96902.97;5045120;28;20033;-67
2022/08/31 08:38:31;;;;;;;11.37;8.23;;;;;;;16.16;100.00;96893.84;5061997;28;20392;-67
2022/08/31 08:40:59;;;;;;;13.68;9.32;;;;;;;16.45;100.00;96894.53;5051495;28;20503;-67
2022/08/31 08:43:46;;;;;;;10.07;8.45;;;;;;;16.39;100.00;96904.44;5040764;28;20131;-67
2022/08/31 08:46:15;;;;;;;9.38;7.47;;;;;;;16.34;100.00;96897.34;5039784;28;20068;-66
2022/08/31 08:48:43;;;;;;;14.07;8.23;;;;;;;16.41;100.00;96900.09;5043767;28;20045;-67
2022/08/31 08:51:18;;;;;;;12.13;9.55;;;;;;;16.53;100.00;96900.81;5036609;28;20388;-65
2022/08/31 08:53:48;;;;;;;11.70;6.55;;;;;;;16.32;100.00;96902.47;5067110;28;20040;-67
2022/08/31 08:56:13;;;;;;;10.88;7.90;;;;;;;16.39;100.00;96905.22;5080762;28;20258;-68
2022/08/31 08:58:41;;;;;;;10.25;7.75;;;;;;;16.16;100.00;96911.22;5075130;28;20040;-67
2022/08/31 09:01:10;;;;;;;11.10;8.20;;;;;;;16.16;100.00;96904.91;5044550;28;20490;-67
2022/08/31 09:03:58;;;;;;;9.98;8.35;;;;;;;16.27;100.00;96919.47;5043783;28;20478;-68
2022/08/31 09:06:42;;;;;;;11.27;7.38;;;;;;;16.41;100.00;96913.91;5040116;28;21031;-68
2022/08/31 09:09:16;;;;;;;10.65;9.15;;;;;;;16.34;100.00;96918.69;5033502;28;20041;-67
2022/08/31 09:12:05;;;;;;;10.80;7.57;;;;;;;16.42;100.00;96911.91;5041069;28;20041;-67
2022/08/31 09:14:50;;;;;;;9.60;6.78;;;;;;;16.61;100.00;96919.75;5045857;28;20126;-67
2022/08/31 09:17:54;;;;;;;11.75;7.15;;;;;;;16.82;100.00;96921.66;5047962;28;20040;-67
2022/08/31 09:20:20;;;;;;;21.00;12.00;;;;;;;16.58;100.00;96917.00;5041449;28;20074;-66
2022/08/31 09:22:51;;;;;;;14.38;10.15;;;;;;;16.85;100.00;96922.84;5050174;28;20135;-66
2022/08/31 09:25:25;;;;;;;9.85;8.05;;;;;;;16.57;100.00;96923.75;5039217;28;20072;-66
2022/08/31 09:27:56;;;;;;;16.38;12.73;;;;;;;16.63;100.00;96922.91;5065210;28;20064;-66
2022/08/31 09:30:43;;;;;;;13.93;9.30;;;;;;;16.54;100.00;96921.75;5060000;28;20075;-66
2022/08/31 09:33:25;;;;;;;9.77;7.65;;;;;;;16.55;100.00;96928.88;5059409;28;20032;-65
2022/08/31 09:36:21;;;;;;;13.05;8.80;;;;;;;16.40;100.00;96930.88;5063684;28;20040;-65
2022/08/31 09:38:48;;;;;;;12.23;7.72;;;;;;;16.58;100.00;96925.28;5041628;28;20696;-66
2022/08/31 09:41:30;;;;;;;11.25;7.65;;;;;;;16.34;100.00;96922.22;5036919;28;20134;-67
2022/08/31 09:44:18;;;;;;;11.63;8.00;;;;;;;16.59;100.00;96924.91;5043667;28;20105;-66
2022/08/31 09:46:52;;;;;;;10.65;8.32;;;;;;;16.58;100.00;96928.06;5049281;28;20049;-67
2022/08/31 09:49:28;;;;;;;12.20;8.40;;;;;;;16.49;100.00;96916.63;5039372;28;20041;-66
2022/08/31 09:52:16;;;;;;;12.18;8.80;;;;;;;16.56;100.00;96919.38;5040147;28;20059;-67
2022/08/31 09:55:12;;;;;;;12.48;9.05;;;;;;;16.65;100.00;96916.97;5062727;28;20068;-67
2022/08/31 09:58:00;;;;;;;12.02;8.40;;;;;;;16.47;100.00;96922.56;5062190;28;20044;-67
2022/08/31 10:00:31;;;;;;;11.93;8.25;;;;;;;16.76;100.00;96914.97;5059330;28;20562;-67
2022/08/31 10:03:24;;;;;;;13.80;8.88;;;;;;;16.80;100.00;96918.50;5056913;28;20232;-67
2022/08/31 10:05:53;;;;;;;15.23;9.75;;;;;;;16.56;100.00;96920.16;5061952;28;20045;-67
2022/08/31 10:08:38;;;;;;;18.85;13.88;;;;;;;16.63;100.00;96922.91;5038869;28;20130;-67
2022/08/31 10:11:10;;;;;;;15.93;13.07;;;;;;;16.81;100.00;96922.81;5034741;28;20053;-65
2022/08/31 10:13:40;;;;;;;11.45;9.55;;;;;;;17.05;100.00;96925.91;5044233;28;20044;-67
2022/08/31 10:16:21;;;;;;;12.73;9.20;;;;;;;16.85;100.00;96939.44;5037769;28;20041;-67
2022/08/31 10:18:58;;;;;;;11.80;9.70;;;;;;;16.53;100.00;96936.75;5039852;28;20045;-67
2022/08/31 10:21:37;;;;;;;17.10;10.57;;;;;;;16.57;100.00;96934.78;5018576;28;20050;-67
2022/08/31 10:24:09;;;;;;;15.65;10.77;;;;;;;16.65;100.00;96941.84;5020987;28;20394;-66
2022/08/31 10:26:41;;;;;;;15.10;10.48;;;;;;;16.84;100.00;96939.84;5037299;28;20139;-67
2022/08/31 10:29:14;;;;;;;24.05;16.48;;;;;;;16.69;100.00;96939.09;5036975;28;20045;-67
2022/08/31 10:31:44;;;;;;;16.58;11.32;;;;;;;16.71;100.00;96942.22;5037052;28;20044;-67
2022/08/31 10:37:11;;;;;;;15.55;12.57;;;;;;;16.70;100.00;96944.22;5038373;28;20043;-66
2022/08/31 10:39:47;;;;;;;17.98;11.40;;;;;;;16.52;100.00;96935.97;5036744;28;20046;-66
2022/08/31 10:42:33;;;;;;;16.20;11.68;;;;;;;16.60;100.00;96947.78;5037822;28;20547;-66
2022/08/31 10:45:09;;;;;;;16.67;11.80;;;;;;;16.73;100.00;96942.63;5038006;28;20059;-66
2022/08/31 10:47:41;;;;;;;16.15;11.25;;;;;;;16.69;100.00;96944.63;5062647;28;20059;-67
2022/08/31 10:50:12;;;;;;;17.60;12.93;;;;;;;16.79;100.00;96941.03;5036079;28;20091;-66
2022/08/31 10:52:38;;;;;;;17.48;11.93;;;;;;;16.70;100.00;96938.69;5042440;28;20094;-66
2022/08/31 10:55:06;;;;;;;15.37;11.67;;;;;;;16.78;100.00;96940.25;5032632;28;20368;-66
2022/08/31 10:58:03;;;;;;;16.08;12.00;;;;;;;16.80;100.00;96932.31;5042928;28;20337;-66
2022/08/31 11:00:48;;;;;;;28.10;20.70;;;;;;;16.78;100.00;96939.44;5055981;28;20059;-66
2022/08/31 11:03:26;;;;;;;15.80;12.75;;;;;;;16.74;100.00;96944.19;5047227;28;20047;-67
2022/08/31 11:06:18;;;;;;;21.02;16.48;;;;;;;16.84;100.00;96942.63;5051282;28;20045;-66
2022/08/31 11:09:03;;;;;;;18.48;13.98;;;;;;;16.87;100.00;96941.81;5049814;28;20139;-68
2022/08/31 11:11:56;;;;;;;19.33;13.20;;;;;;;17.04;100.00;96937.38;5052365;28;20497;-67
2022/08/31 11:14:43;;;;;;;17.80;13.63;;;;;;;17.05;100.00;96941.72;5035522;28;20059;-67
2022/08/31 11:17:17;;;;;;;17.77;12.95;;;;;;;17.04;100.00;96932.63;5038471;28;20642;-67
2022/08/31 11:19:53;;;;;;;21.30;12.70;;;;;;;16.98;100.00;96926.75;5042437;28;20498;-67
2022/08/31 11:22:51;;;;;;;40.88;36.90;;;;;;;17.22;100.00;96923.44;5043662;28;20041;-67
2022/08/31 11:25:46;;;;;;;14.45;12.00;;;;;;;17.23;100.00;96925.00;5047966;28;20127;-68
2022/08/31 11:28:52;;;;;;;16.92;12.25;;;;;;;17.13;100.00;96921.91;5047396;28;20033;-69
2022/08/31 11:31:24;;;;;;;15.13;11.43;;;;;;;17.65;100.00;96928.69;5042024;28;20055;-68
2022/08/31 11:33:59;;;;;;;20.33;15.25;;;;;;;17.82;100.00;96927.72;5050509;28;20037;-67
2022/08/31 11:36:54;;;;;;;17.13;11.68;;;;;;;17.92;100.00;96926.88;5047794;28;20411;-68
2022/08/31 11:39:20;;;;;;;16.20;10.15;;;;;;;18.10;100.00;96937.81;5046886;28;20040;-69
2022/08/31 11:41:47;;;;;;;18.50;10.57;;;;;;;18.22;100.00;96938.47;5053526;28;20063;-70